createdAt,value
2019-04-14T00:00:01.152Z,0.00
2019-04-14T00:01:00.206Z,0.00
2019-04-14T00:02:00.990Z,0.00
2019-04-14T00:03:00.112Z,0.00
2019-04-14T00:04:00.809Z,0.00
2019-04-14T00:05:00.045Z,0.00
2019-04-14T00:06:00.525Z,0.00
2019-04-14T00:06:59.974Z,0.00
2019-04-14T00:08:00.315Z,0.00
2019-04-14T00:09:01.009Z,0.00
2019-04-14T00:10:00.721Z,0.00
2019-04-14T00:10:59.884Z,0.00
2019-04-14T00:12:01.140Z,0.00
2019-04-14T00:13:00.051Z,0.00
2019-04-14T00:14:00.912Z,0.00
2019-04-14T00:14:59.874Z,0.00
2019-04-14T00:16:00.659Z,0.00
2019-04-14T00:16:59.709Z,0.00
2019-04-14T00:17:59.600Z,0.00
2019-04-14T00:18:59.855Z,0.00
2019-04-14T00:19:59.536Z,0.00
2019-04-14T00:20:59.863Z,0.00
2019-04-14T00:21:59.467Z,0.00
2019-04-14T00:22:59.785Z,0.00
2019-04-14T00:23:59.405Z,0.00
2019-04-14T00:24:59.734Z,0.00
2019-04-14T00:26:00.821Z,0.00
2019-04-14T00:26:59.586Z,0.00
2019-04-14T00:27:59.259Z,0.00
2019-04-14T00:29:00.098Z,0.00
2019-04-14T00:29:59.194Z,0.00
2019-04-14T00:30:59.886Z,0.00
2019-04-14T00:31:59.124Z,0.00
2019-04-14T00:32:59.474Z,0.00
2019-04-14T00:33:59.059Z,0.00
2019-04-14T00:34:59.387Z,0.00
2019-04-14T00:36:00.142Z,0.00
2019-04-14T00:36:58.956Z,0.00
2019-04-14T00:37:59.786Z,0.00
2019-04-14T00:38:58.895Z,0.00
2019-04-14T00:39:59.747Z,0.00
2019-04-14T00:40:58.918Z,0.00
2019-04-14T00:42:01.775Z,0.00
2019-04-14T00:42:58.756Z,0.00
2019-04-14T00:43:59.229Z,0.00
2019-04-14T00:44:58.689Z,0.00
2019-04-14T00:46:00.932Z,0.00
2019-04-14T00:46:58.618Z,0.00
2019-04-14T00:48:05.623Z,0.00
2019-04-14T00:48:58.550Z,0.00
2019-04-14T00:49:59.410Z,0.00
2019-04-14T00:50:58.483Z,0.00
2019-04-14T00:51:59.300Z,0.00
2019-04-14T00:52:58.869Z,0.00
2019-04-14T00:53:58.408Z,0.00
2019-04-14T00:54:58.715Z,0.00
2019-04-14T00:55:58.332Z,0.00
2019-04-14T00:56:58.518Z,0.00
2019-04-14T00:57:59.455Z,0.00
2019-04-14T00:58:58.294Z,0.00
2019-04-14T00:59:59.436Z,0.00
2019-04-14T01:00:58.142Z,0.00
2019-04-14T01:01:59.162Z,0.00
2019-04-14T01:02:58.075Z,0.00
2019-04-14T01:03:59.053Z,0.00
2019-04-14T01:04:58.005Z,0.00
2019-04-14T01:05:59.028Z,0.00
2019-04-14T01:06:57.958Z,0.00
2019-04-14T01:07:58.770Z,0.00
2019-04-14T01:08:57.873Z,0.00
2019-04-14T01:09:57.844Z,0.00
2019-04-14T01:10:58.337Z,0.00
2019-04-14T01:11:57.800Z,0.00
2019-04-14T01:12:58.190Z,0.00
2019-04-14T01:13:57.724Z,0.00
2019-04-14T01:14:58.226Z,0.00
2019-04-14T01:16:05.235Z,0.00
2019-04-14T01:16:58.004Z,0.00
2019-04-14T01:17:57.575Z,0.00
2019-04-14T01:18:58.060Z,0.00
2019-04-14T01:19:57.497Z,0.00
2019-04-14T01:20:57.834Z,0.00
2019-04-14T01:21:57.452Z,0.00
2019-04-14T01:22:57.484Z,0.00
2019-04-14T01:23:57.363Z,0.00
2019-04-14T01:24:57.577Z,0.00
2019-04-14T01:25:58.382Z,0.00
2019-04-14T01:26:57.286Z,0.00
2019-04-14T01:27:58.200Z,0.00
2019-04-14T01:28:57.195Z,0.00
2019-04-14T01:29:58.151Z,0.00
2019-04-14T01:30:57.131Z,0.00
2019-04-14T01:31:57.941Z,0.00
2019-04-14T01:32:57.060Z,0.00
2019-04-14T01:33:57.616Z,0.00
2019-04-14T01:34:57.068Z,0.00
2019-04-14T01:35:57.398Z,0.00
2019-04-14T01:36:56.955Z,0.00
2019-04-14T01:37:57.266Z,0.00
2019-04-14T01:38:58.063Z,0.00
2019-04-14T01:39:56.822Z,0.00
2019-04-14T01:40:57.727Z,0.00
2019-04-14T01:41:56.780Z,0.00
2019-04-14T01:42:57.317Z,0.00
2019-04-14T01:43:56.692Z,0.00
2019-04-14T01:44:57.078Z,0.00
2019-04-14T01:46:05.190Z,0.00
2019-04-14T01:46:56.661Z,0.00
2019-04-14T01:47:57.547Z,0.00
2019-04-14T01:48:56.520Z,0.00
2019-04-14T01:49:57.365Z,0.00
2019-04-14T01:50:56.447Z,0.00
2019-04-14T01:51:57.138Z,0.00
2019-04-14T01:52:56.785Z,0.00
2019-04-14T01:53:57.394Z,0.00
2019-04-14T01:54:56.316Z,0.00
2019-04-14T01:55:57.005Z,0.00
2019-04-14T01:56:56.246Z,0.00
2019-04-14T01:57:56.850Z,0.00
2019-04-14T01:58:56.185Z,0.00
2019-04-14T01:59:56.762Z,0.00
2019-04-14T02:00:56.122Z,0.00
2019-04-14T02:01:56.505Z,0.00
2019-04-14T02:02:56.098Z,0.00
2019-04-14T02:03:56.295Z,0.00
2019-04-14T02:04:55.985Z,0.00
2019-04-14T02:05:56.160Z,0.00
2019-04-14T02:06:57.046Z,0.00
2019-04-14T02:07:55.942Z,0.00
2019-04-14T02:08:56.862Z,0.00
2019-04-14T02:09:55.811Z,0.00
2019-04-14T02:10:56.585Z,0.00
2019-04-14T02:11:55.747Z,0.00
2019-04-14T02:12:56.376Z,0.00
2019-04-14T02:13:55.677Z,0.00
2019-04-14T02:14:56.287Z,0.00
2019-04-14T02:15:55.607Z,0.00
2019-04-14T02:16:59.075Z,0.00
2019-04-14T02:17:56.608Z,0.00
2019-04-14T02:18:56.870Z,0.00
2019-04-14T02:19:56.665Z,0.00
2019-04-14T02:20:55.761Z,0.00
2019-04-14T02:21:56.333Z,0.00
2019-04-14T02:23:01.812Z,0.00
2019-04-14T02:23:56.127Z,0.00
2019-04-14T02:24:55.302Z,0.00
2019-04-14T02:25:55.749Z,0.00
2019-04-14T02:26:55.234Z,0.00
2019-04-14T02:27:55.829Z,0.00
2019-04-14T02:28:55.188Z,0.00
2019-04-14T02:29:55.899Z,0.00
2019-04-14T02:31:06.372Z,0.00
2019-04-14T02:32:25.175Z,0.00
2019-04-14T02:33:25.990Z,0.00
2019-04-14T02:34:25.582Z,0.00
2019-04-14T02:35:22.786Z,0.00
2019-04-14T02:37:36.976Z,0.00
2019-04-14T02:38:40.856Z,0.00
2019-04-14T02:39:21.095Z,0.00
2019-04-14T02:40:29.209Z,0.00
2019-04-14T02:41:35.714Z,0.00
2019-04-14T02:43:27.697Z,0.00
2019-04-14T02:44:25.675Z,0.00
2019-04-14T02:46:22.077Z,0.00
2019-04-14T02:47:47.266Z,0.00
2019-04-14T02:49:19.518Z,0.00
2019-04-14T02:50:18.267Z,0.00
2019-04-14T02:52:19.686Z,0.00
2019-04-14T02:54:22.956Z,0.00
2019-04-14T02:55:15.790Z,0.00
2019-04-14T02:56:21.742Z,0.00
2019-04-14T02:59:19.709Z,0.00
2019-04-14T03:00:24.638Z,0.00
2019-04-14T03:01:27.632Z,0.00
2019-04-14T03:03:27.844Z,0.00
2019-04-14T03:04:19.765Z,0.00
2019-04-14T03:05:21.854Z,0.00
2019-04-14T03:06:18.091Z,0.00
2019-04-14T03:07:21.954Z,0.00
2019-04-14T03:09:34.758Z,0.00
2019-04-14T03:11:22.196Z,0.00
2019-04-14T03:12:24.529Z,0.00
2019-04-14T03:13:21.006Z,0.00
2019-04-14T03:14:25.427Z,0.00
2019-04-14T03:15:27.959Z,0.00
2019-04-14T03:16:23.551Z,0.00
2019-04-14T03:19:32.786Z,0.00
2019-04-14T03:21:19.735Z,0.00
2019-04-14T03:22:33.163Z,0.00
2019-04-14T03:23:24.982Z,0.00
2019-04-14T03:24:21.728Z,0.00
2019-04-14T03:25:06.163Z,0.00
2019-04-14T03:26:22.963Z,0.00
2019-04-14T03:27:26.598Z,0.00
2019-04-14T03:28:17.540Z,0.00
2019-04-14T03:29:20.968Z,0.00
2019-04-14T03:30:46.106Z,0.00
2019-04-14T03:31:39.403Z,0.00
2019-04-14T03:32:39.101Z,0.00
2019-04-14T03:34:34.534Z,0.00
2019-04-14T03:35:51.881Z,0.00
2019-04-14T03:37:07.928Z,0.00
2019-04-14T03:37:42.375Z,0.00
2019-04-14T03:39:15.264Z,0.00
2019-04-14T03:40:21.815Z,0.00
2019-04-14T03:41:25.738Z,0.00
2019-04-14T03:42:21.500Z,0.00
2019-04-14T03:43:24.444Z,0.00
2019-04-14T03:44:18.619Z,0.00
2019-04-14T03:45:26.122Z,0.00
2019-04-14T03:46:33.286Z,0.00
2019-04-14T03:47:19.534Z,0.00
2019-04-14T03:50:21.209Z,0.00
2019-04-14T03:51:32.745Z,0.00
2019-04-14T03:54:07.934Z,0.00
2019-04-14T03:55:10.121Z,0.00
2019-04-14T03:55:58.743Z,0.00
2019-04-14T03:56:53.641Z,0.00
2019-04-14T03:57:52.156Z,0.00
2019-04-14T03:58:53.187Z,0.00
2019-04-14T03:59:52.159Z,0.00
2019-04-14T04:00:53.210Z,0.00
2019-04-14T04:01:52.369Z,0.00
2019-04-14T04:02:51.993Z,0.00
2019-04-14T04:03:52.182Z,0.00
2019-04-14T04:04:51.948Z,0.00
2019-04-14T04:05:52.190Z,0.00
2019-04-14T04:06:53.051Z,0.00
2019-04-14T04:07:51.820Z,0.00
2019-04-14T04:08:52.911Z,0.00
2019-04-14T04:09:51.903Z,0.00
2019-04-14T04:10:51.712Z,0.00
2019-04-14T04:11:52.021Z,0.00
2019-04-14T04:12:51.652Z,0.00
2019-04-14T04:13:51.999Z,0.00
2019-04-14T04:14:51.598Z,0.00
2019-04-14T04:15:52.004Z,0.00
2019-04-14T04:16:51.505Z,0.00
2019-04-14T04:17:51.709Z,0.00
2019-04-14T04:19:00.049Z,0.00
2019-04-14T04:19:51.479Z,0.00
2019-04-14T04:20:52.426Z,0.00
2019-04-14T04:21:51.341Z,0.00
2019-04-14T04:22:52.266Z,0.00
2019-04-14T04:23:51.290Z,0.00
2019-04-14T04:24:52.134Z,0.00
2019-04-14T04:25:51.240Z,5.63
2019-04-14T04:26:51.786Z,5.63
2019-04-14T04:27:51.146Z,5.63
2019-04-14T04:28:51.797Z,5.63
2019-04-14T04:29:51.069Z,5.63
2019-04-14T04:30:51.617Z,5.63
2019-04-14T04:31:51.003Z,5.63
2019-04-14T04:32:51.545Z,5.63
2019-04-14T04:33:50.957Z,5.63
2019-04-14T04:34:51.251Z,11.25
2019-04-14T04:35:52.115Z,11.25
2019-04-14T04:36:50.936Z,11.25
2019-04-14T04:37:51.928Z,11.25
2019-04-14T04:38:51.046Z,11.25
2019-04-14T04:39:51.710Z,11.25
2019-04-14T04:40:50.808Z,11.25
2019-04-14T04:41:51.593Z,16.88
2019-04-14T04:42:50.637Z,16.88
2019-04-14T04:43:51.736Z,16.88
2019-04-14T04:44:50.998Z,16.88
2019-04-14T04:45:51.610Z,16.88
2019-04-14T04:46:50.536Z,22.50
2019-04-14T04:47:51.284Z,22.50
2019-04-14T04:49:02.034Z,22.50
2019-04-14T04:49:51.220Z,28.13
2019-04-14T04:50:50.381Z,33.75
2019-04-14T04:51:50.853Z,33.75
2019-04-14T04:52:50.285Z,33.75
2019-04-14T04:53:50.490Z,33.75
2019-04-14T04:54:50.256Z,39.38
2019-04-14T04:55:50.480Z,45.00
2019-04-14T04:56:50.159Z,45.00
2019-04-14T04:57:50.279Z,45.00
2019-04-14T04:58:50.231Z,45.00
2019-04-14T04:59:50.048Z,50.63
2019-04-14T05:00:52.571Z,50.63
2019-04-14T05:01:49.974Z,50.63
2019-04-14T05:02:50.583Z,50.63
2019-04-14T05:03:49.904Z,61.88
2019-04-14T05:04:50.526Z,67.50
2019-04-14T05:05:49.867Z,73.13
2019-04-14T05:06:50.526Z,78.75
2019-04-14T05:07:49.770Z,84.38
2019-04-14T05:08:50.248Z,84.38
2019-04-14T05:09:49.702Z,84.38
2019-04-14T05:10:50.295Z,90.00
2019-04-14T05:11:52.612Z,95.63
2019-04-14T05:12:50.168Z,90.00
2019-04-14T05:13:49.569Z,106.88
2019-04-14T05:14:50.144Z,112.50
2019-04-14T05:15:49.528Z,106.88
2019-04-14T05:16:50.666Z,106.88
2019-04-14T05:17:49.587Z,95.63
2019-04-14T05:18:49.407Z,95.63
2019-04-14T05:19:49.677Z,95.63
2019-04-14T05:20:49.376Z,101.25
2019-04-14T05:21:49.537Z,101.25
2019-04-14T05:22:49.266Z,95.63
2019-04-14T05:23:49.516Z,95.63
2019-04-14T05:24:49.195Z,95.63
2019-04-14T05:25:49.529Z,101.25
2019-04-14T05:26:49.133Z,90.00
2019-04-14T05:27:49.469Z,90.00
2019-04-14T05:28:49.060Z,95.63
2019-04-14T05:29:49.386Z,101.25
2019-04-14T05:30:50.268Z,101.25
2019-04-14T05:31:49.105Z,101.25
2019-04-14T05:32:50.030Z,101.25
2019-04-14T05:33:49.057Z,101.25
2019-04-14T05:34:50.129Z,95.63
2019-04-14T05:35:48.950Z,84.38
2019-04-14T05:36:49.922Z,84.38
2019-04-14T05:37:48.765Z,90.00
2019-04-14T05:38:49.578Z,84.38
2019-04-14T05:39:48.712Z,90.00
2019-04-14T05:40:49.653Z,95.63
2019-04-14T05:42:02.594Z,90.00
2019-04-14T05:42:49.441Z,90.00
2019-04-14T05:43:53.770Z,84.38
2019-04-14T05:44:49.444Z,84.38
2019-04-14T05:45:48.493Z,90.00
2019-04-14T05:46:49.161Z,84.38
2019-04-14T05:47:48.421Z,84.38
2019-04-14T05:48:49.224Z,78.75
2019-04-14T05:49:51.813Z,73.13
2019-04-14T05:50:49.025Z,78.75
2019-04-14T05:51:48.377Z,84.38
2019-04-14T05:52:49.272Z,90.00
2019-04-14T05:53:48.241Z,78.75
2019-04-14T05:54:49.228Z,78.75
2019-04-14T05:55:48.228Z,90.00
2019-04-14T05:56:49.311Z,101.25
2019-04-14T05:57:48.182Z,112.50
2019-04-14T05:58:49.233Z,135.00
2019-04-14T05:59:48.404Z,112.50
2019-04-14T06:00:47.982Z,123.75
2019-04-14T06:01:48.838Z,118.13
2019-04-14T06:02:48.508Z,106.88
2019-04-14T06:03:47.899Z,118.13
2019-04-14T06:04:48.255Z,123.75
2019-04-14T06:05:47.820Z,135.00
2019-04-14T06:06:47.800Z,123.75
2019-04-14T06:07:47.739Z,135.00
2019-04-14T06:08:47.708Z,135.00
2019-04-14T06:09:47.666Z,123.75
2019-04-14T06:10:47.642Z,118.13
2019-04-14T06:11:47.627Z,118.13
2019-04-14T06:12:47.587Z,129.38
2019-04-14T06:13:47.547Z,118.13
2019-04-14T06:14:47.503Z,129.38
2019-04-14T06:15:47.468Z,140.63
2019-04-14T06:16:47.457Z,146.25
2019-04-14T06:17:47.410Z,163.13
2019-04-14T06:18:47.368Z,180.00
2019-04-14T06:19:47.327Z,180.00
2019-04-14T06:20:47.308Z,168.75
2019-04-14T06:21:47.287Z,174.38
2019-04-14T06:22:47.228Z,180.00
2019-04-14T06:23:47.195Z,196.88
2019-04-14T06:24:47.161Z,213.75
2019-04-14T06:25:47.182Z,191.25
2019-04-14T06:26:47.118Z,196.88
2019-04-14T06:27:47.087Z,208.13
2019-04-14T06:28:47.034Z,213.75
2019-04-14T06:29:46.999Z,219.38
2019-04-14T06:30:46.976Z,225.00
2019-04-14T06:31:46.922Z,196.88
2019-04-14T06:32:46.929Z,185.63
2019-04-14T06:33:46.856Z,196.88
2019-04-14T06:34:46.825Z,185.63
2019-04-14T06:35:46.790Z,185.63
2019-04-14T06:36:46.756Z,219.38
2019-04-14T06:37:46.753Z,258.75
2019-04-14T06:38:46.709Z,275.63
2019-04-14T06:39:46.653Z,315.00
2019-04-14T06:40:46.620Z,348.75
2019-04-14T06:41:46.583Z,365.63
2019-04-14T06:42:46.577Z,388.13
2019-04-14T06:43:48.966Z,376.88
2019-04-14T06:44:46.487Z,292.50
2019-04-14T06:45:46.448Z,348.75
2019-04-14T06:46:46.417Z,337.50
2019-04-14T06:47:46.457Z,315.00
2019-04-14T06:48:46.363Z,303.75
2019-04-14T06:49:49.108Z,281.25
2019-04-14T06:50:46.614Z,281.25
2019-04-14T06:51:46.248Z,286.88
2019-04-14T06:52:46.243Z,264.38
2019-04-14T06:53:46.180Z,241.88
2019-04-14T06:54:46.166Z,275.63
2019-04-14T06:55:46.113Z,286.88
2019-04-14T06:56:46.086Z,270.00
2019-04-14T06:57:46.126Z,275.63
2019-04-14T06:58:46.013Z,264.38
2019-04-14T06:59:45.983Z,264.38
2019-04-14T07:00:45.953Z,286.88
2019-04-14T07:01:45.913Z,292.50
2019-04-14T07:02:48.054Z,303.75
2019-04-14T07:03:45.852Z,298.13
2019-04-14T07:04:45.817Z,315.00
2019-04-14T07:05:45.790Z,309.38
2019-04-14T07:06:45.751Z,326.25
2019-04-14T07:07:56.428Z,326.25
2019-04-14T07:08:45.676Z,303.75
2019-04-14T07:09:45.639Z,298.13
2019-04-14T07:10:45.610Z,303.75
2019-04-14T07:11:45.571Z,320.63
2019-04-14T07:12:45.562Z,326.25
2019-04-14T07:13:47.925Z,348.75
2019-04-14T07:14:45.471Z,348.75
2019-04-14T07:15:45.441Z,348.75
2019-04-14T07:16:45.408Z,315.00
2019-04-14T07:17:45.394Z,292.50
2019-04-14T07:18:45.335Z,286.88
2019-04-14T07:19:45.298Z,303.75
2019-04-14T07:20:45.276Z,286.88
2019-04-14T07:21:45.261Z,236.25
2019-04-14T07:22:45.235Z,219.38
2019-04-14T07:23:47.285Z,208.13
2019-04-14T07:24:45.139Z,208.13
2019-04-14T07:25:45.193Z,191.25
2019-04-14T07:26:45.077Z,163.13
2019-04-14T07:27:45.036Z,163.13
2019-04-14T07:28:56.216Z,196.88
2019-04-14T07:29:44.973Z,202.50
2019-04-14T07:30:44.934Z,196.88
2019-04-14T07:31:44.913Z,180.00
2019-04-14T07:32:44.868Z,191.25
2019-04-14T07:33:44.861Z,174.38
2019-04-14T07:34:44.810Z,213.75
2019-04-14T07:35:44.774Z,247.50
2019-04-14T07:36:44.751Z,258.75
2019-04-14T07:37:45.385Z,247.50
2019-04-14T07:38:44.759Z,236.25
2019-04-14T07:39:44.638Z,241.88
2019-04-14T07:40:44.609Z,298.13
2019-04-14T07:41:44.571Z,315.00
2019-04-14T07:42:44.535Z,292.50
2019-04-14T07:43:44.574Z,270.00
2019-04-14T07:44:44.468Z,258.75
2019-04-14T07:45:44.441Z,225.00
2019-04-14T07:46:44.401Z,225.00
2019-04-14T07:47:44.374Z,208.13
2019-04-14T07:48:44.358Z,208.13
2019-04-14T07:49:44.304Z,196.88
2019-04-14T07:50:44.262Z,208.13
2019-04-14T07:51:44.231Z,225.00
2019-04-14T07:52:44.199Z,208.13
2019-04-14T07:53:44.186Z,225.00
2019-04-14T07:54:44.128Z,230.63
2019-04-14T07:55:44.098Z,230.63
2019-04-14T07:56:44.061Z,225.00
2019-04-14T07:57:44.029Z,225.00
2019-04-14T07:58:44.015Z,247.50
2019-04-14T07:59:43.968Z,241.88
2019-04-14T08:00:43.928Z,241.88
2019-04-14T08:01:43.889Z,258.75
2019-04-14T08:02:43.863Z,230.63
2019-04-14T08:03:43.848Z,247.50
2019-04-14T08:04:43.795Z,247.50
2019-04-14T08:05:43.755Z,241.88
2019-04-14T08:06:43.733Z,230.63
2019-04-14T08:07:43.718Z,236.25
2019-04-14T08:08:43.693Z,247.50
2019-04-14T08:09:43.623Z,275.63
2019-04-14T08:10:43.594Z,281.25
2019-04-14T08:11:43.560Z,315.00
2019-04-14T08:12:43.525Z,298.13
2019-04-14T08:13:43.512Z,270.00
2019-04-14T08:14:43.453Z,281.25
2019-04-14T08:15:43.423Z,298.13
2019-04-14T08:16:43.389Z,309.38
2019-04-14T08:17:45.288Z,309.38
2019-04-14T08:18:43.348Z,281.25
2019-04-14T08:19:43.290Z,270.00
2019-04-14T08:20:43.263Z,247.50
2019-04-14T08:21:43.219Z,264.38
2019-04-14T08:22:43.195Z,230.63
2019-04-14T08:23:43.160Z,230.63
2019-04-14T08:24:43.143Z,275.63
2019-04-14T08:25:43.081Z,309.38
2019-04-14T08:26:43.050Z,309.38
2019-04-14T08:27:43.026Z,331.88
2019-04-14T08:28:42.986Z,393.75
2019-04-14T08:29:42.985Z,427.50
2019-04-14T08:30:42.917Z,427.50
2019-04-14T08:31:42.883Z,410.63
2019-04-14T08:32:42.857Z,376.88
2019-04-14T08:33:42.822Z,348.75
2019-04-14T08:34:42.819Z,354.38
2019-04-14T08:35:42.751Z,360.00
2019-04-14T08:36:42.738Z,371.25
2019-04-14T08:37:42.689Z,360.00
2019-04-14T08:38:42.648Z,331.88
2019-04-14T08:39:42.644Z,320.63
2019-04-14T08:40:42.580Z,303.75
2019-04-14T08:41:42.550Z,286.88
2019-04-14T08:42:42.516Z,247.50
2019-04-14T08:43:42.491Z,286.88
2019-04-14T08:44:42.482Z,320.63
2019-04-14T08:45:42.430Z,309.38
2019-04-14T08:46:42.386Z,286.88
2019-04-14T08:47:42.350Z,286.88
2019-04-14T08:48:42.325Z,281.25
2019-04-14T08:49:42.309Z,264.38
2019-04-14T08:50:42.261Z,292.50
2019-04-14T08:51:42.222Z,298.13
2019-04-14T08:52:42.187Z,270.00
2019-04-14T08:53:42.156Z,253.13
2019-04-14T08:54:42.170Z,241.88
2019-04-14T08:55:42.092Z,264.38
2019-04-14T08:56:42.104Z,275.63
2019-04-14T08:57:42.037Z,337.50
2019-04-14T08:58:42.001Z,343.13
2019-04-14T08:59:41.994Z,371.25
2019-04-14T09:00:41.950Z,365.63
2019-04-14T09:01:41.896Z,371.25
2019-04-14T09:02:41.863Z,376.88
2019-04-14T09:03:41.833Z,388.13
2019-04-14T09:04:41.952Z,405.00
2019-04-14T09:05:41.768Z,410.63
2019-04-14T09:06:41.733Z,393.75
2019-04-14T09:07:41.718Z,365.63
2019-04-14T09:08:41.667Z,360.00
2019-04-14T09:09:41.704Z,343.13
2019-04-14T09:10:41.627Z,337.50
2019-04-14T09:11:41.568Z,337.50
2019-04-14T09:12:41.575Z,320.63
2019-04-14T09:13:41.498Z,331.88
2019-04-14T09:14:41.486Z,371.25
2019-04-14T09:15:41.498Z,382.50
2019-04-14T09:16:41.403Z,371.25
2019-04-14T09:17:41.366Z,360.00
2019-04-14T09:18:41.339Z,365.63
2019-04-14T09:19:41.307Z,348.75
2019-04-14T09:20:51.715Z,315.00
2019-04-14T09:21:41.231Z,354.38
2019-04-14T09:22:41.201Z,382.50
2019-04-14T09:23:41.181Z,399.38
2019-04-14T09:24:41.168Z,416.25
2019-04-14T09:25:41.123Z,427.50
2019-04-14T09:26:41.067Z,450.00
2019-04-14T09:27:41.031Z,466.88
2019-04-14T09:28:41.010Z,450.00
2019-04-14T09:29:41.013Z,466.88
2019-04-14T09:30:40.958Z,421.88
2019-04-14T09:31:40.911Z,421.88
2019-04-14T09:32:40.872Z,433.13
2019-04-14T09:33:40.843Z,399.38
2019-04-14T09:34:40.843Z,376.88
2019-04-14T09:35:40.884Z,354.38
2019-04-14T09:36:40.741Z,315.00
2019-04-14T09:37:40.721Z,281.25
2019-04-14T09:38:40.682Z,337.50
2019-04-14T09:39:40.657Z,326.25
2019-04-14T09:40:40.644Z,264.38
2019-04-14T09:41:40.599Z,326.25
2019-04-14T09:42:40.548Z,343.13
2019-04-14T09:43:40.542Z,382.50
2019-04-14T09:44:40.482Z,388.13
2019-04-14T09:45:40.474Z,410.63
2019-04-14T09:46:40.427Z,438.75
2019-04-14T09:47:40.436Z,405.00
2019-04-14T09:48:42.793Z,371.25
2019-04-14T09:49:40.317Z,343.13
2019-04-14T09:50:40.322Z,360.00
2019-04-14T09:51:40.270Z,320.63
2019-04-14T09:52:40.235Z,354.38
2019-04-14T09:53:40.186Z,410.63
2019-04-14T09:54:40.170Z,444.38
2019-04-14T09:55:40.147Z,433.13
2019-04-14T09:56:40.093Z,433.13
2019-04-14T09:57:40.051Z,393.75
2019-04-14T09:58:40.054Z,427.50
2019-04-14T09:59:39.998Z,388.13
2019-04-14T10:00:40.000Z,410.63
2019-04-14T10:01:39.926Z,450.00
2019-04-14T10:02:39.895Z,421.88
2019-04-14T10:03:39.871Z,461.25
2019-04-14T10:04:39.842Z,523.13
2019-04-14T10:05:39.828Z,579.38
2019-04-14T10:06:40.961Z,528.75
2019-04-14T10:07:39.734Z,562.50
2019-04-14T10:08:39.699Z,506.25
2019-04-14T10:09:39.683Z,427.50
2019-04-14T10:10:39.931Z,511.88
2019-04-14T10:11:48.481Z,568.13
2019-04-14T10:12:39.605Z,562.50
2019-04-14T10:13:39.539Z,534.38
2019-04-14T10:14:39.508Z,500.63
2019-04-14T10:15:39.506Z,466.88
2019-04-14T10:16:39.446Z,433.13
2019-04-14T10:17:39.419Z,405.00
2019-04-14T10:18:39.385Z,433.13
2019-04-14T10:19:39.355Z,438.75
2019-04-14T10:20:39.330Z,466.88
2019-04-14T10:21:39.326Z,489.38
2019-04-14T10:22:39.256Z,489.38
2019-04-14T10:23:39.615Z,500.63
2019-04-14T10:24:39.193Z,472.50
2019-04-14T10:25:39.165Z,433.13
2019-04-14T10:26:39.159Z,405.00
2019-04-14T10:27:39.098Z,427.50
2019-04-14T10:28:39.070Z,438.75
2019-04-14T10:29:39.033Z,416.25
2019-04-14T10:30:39.011Z,382.50
2019-04-14T10:31:38.997Z,388.13
2019-04-14T10:32:38.992Z,393.75
2019-04-14T10:33:38.941Z,371.25
2019-04-14T10:34:38.883Z,382.50
2019-04-14T10:35:38.865Z,388.13
2019-04-14T10:36:38.844Z,382.50
2019-04-14T10:37:38.784Z,348.75
2019-04-14T10:38:38.750Z,343.13
2019-04-14T10:39:38.768Z,337.50
2019-04-14T10:40:38.710Z,286.88
2019-04-14T10:41:38.776Z,298.13
2019-04-14T10:42:38.636Z,320.63
2019-04-14T10:43:38.623Z,326.25
2019-04-14T10:44:38.568Z,315.00
2019-04-14T10:45:38.552Z,292.50
2019-04-14T10:46:38.547Z,286.88
2019-04-14T10:47:38.467Z,286.88
2019-04-14T10:48:38.446Z,303.75
2019-04-14T10:49:38.400Z,343.13
2019-04-14T10:50:38.373Z,337.50
2019-04-14T10:51:38.410Z,337.50
2019-04-14T10:52:38.303Z,337.50
2019-04-14T10:53:38.274Z,331.88
2019-04-14T10:54:38.243Z,331.88
2019-04-14T10:55:38.211Z,315.00
2019-04-14T10:56:38.234Z,298.13
2019-04-14T10:57:38.146Z,315.00
2019-04-14T10:58:38.116Z,309.38
2019-04-14T10:59:38.084Z,292.50
2019-04-14T11:00:38.049Z,281.25
2019-04-14T11:01:38.041Z,286.88
2019-04-14T11:02:38.022Z,298.13
2019-04-14T11:03:37.953Z,286.88
2019-04-14T11:04:37.921Z,275.63
2019-04-14T11:05:37.895Z,286.88
2019-04-14T11:06:37.893Z,270.00
2019-04-14T11:07:37.820Z,258.75
2019-04-14T11:08:37.792Z,258.75
2019-04-14T11:09:37.761Z,258.75
2019-04-14T11:10:37.733Z,275.63
2019-04-14T11:11:37.722Z,298.13
2019-04-14T11:12:37.660Z,309.38
2019-04-14T11:13:37.630Z,320.63
2019-04-14T11:14:37.595Z,315.00
2019-04-14T11:15:37.563Z,320.63
2019-04-14T11:16:37.560Z,320.63
2019-04-14T11:17:37.500Z,309.38
2019-04-14T11:18:37.484Z,309.38
2019-04-14T11:19:37.447Z,320.63
2019-04-14T11:20:37.454Z,315.00
2019-04-14T11:21:42.723Z,303.75
2019-04-14T11:22:37.347Z,309.38
2019-04-14T11:23:37.307Z,298.13
2019-04-14T11:24:37.297Z,309.38
2019-04-14T11:25:37.244Z,315.00
2019-04-14T11:26:37.218Z,315.00
2019-04-14T11:27:37.214Z,326.25
2019-04-14T11:28:37.150Z,320.63
2019-04-14T11:29:37.122Z,292.50
2019-04-14T11:30:37.087Z,292.50
2019-04-14T11:31:44.115Z,286.88
2019-04-14T11:32:37.040Z,258.75
2019-04-14T11:33:36.983Z,275.63
2019-04-14T11:34:36.984Z,286.88
2019-04-14T11:35:36.928Z,286.88
2019-04-14T11:36:36.919Z,309.38
2019-04-14T11:37:36.879Z,326.25
2019-04-14T11:38:36.848Z,331.88
2019-04-14T11:39:36.800Z,320.63
2019-04-14T11:40:36.812Z,309.38
2019-04-14T11:41:36.775Z,320.63
2019-04-14T11:42:36.768Z,326.25
2019-04-14T11:43:36.664Z,320.63
2019-04-14T11:44:36.630Z,326.25
2019-04-14T11:45:36.614Z,337.50
2019-04-14T11:46:36.575Z,337.50
2019-04-14T11:47:36.556Z,331.88
2019-04-14T11:48:36.504Z,337.50
2019-04-14T11:49:36.470Z,331.88
2019-04-14T11:50:36.461Z,331.88
2019-04-14T11:51:36.436Z,331.88
2019-04-14T11:52:36.395Z,343.13
2019-04-14T11:53:36.338Z,354.38
2019-04-14T11:54:36.320Z,365.63
2019-04-14T11:55:36.286Z,382.50
2019-04-14T11:56:36.257Z,393.75
2019-04-14T11:57:36.237Z,405.00
2019-04-14T11:58:37.217Z,410.63
2019-04-14T11:59:36.193Z,416.25
2019-04-14T12:00:36.128Z,421.88
2019-04-14T12:01:36.114Z,438.75
2019-04-14T12:02:36.087Z,450.00
2019-04-14T12:03:36.020Z,450.00
2019-04-14T12:04:36.012Z,433.13
2019-04-14T12:05:35.955Z,421.88
2019-04-14T12:06:35.938Z,410.63
2019-04-14T12:07:35.917Z,416.25
2019-04-14T12:08:35.912Z,421.88
2019-04-14T12:09:35.828Z,444.38
2019-04-14T12:10:35.799Z,472.50
2019-04-14T12:11:35.769Z,472.50
2019-04-14T12:12:35.775Z,455.63
2019-04-14T12:13:35.706Z,444.38
2019-04-14T12:14:35.671Z,450.00
2019-04-14T12:15:35.640Z,461.25
2019-04-14T12:16:35.610Z,466.88
2019-04-14T12:17:35.573Z,466.88
2019-04-14T12:18:35.581Z,472.50
2019-04-14T12:19:35.512Z,472.50
2019-04-14T12:20:35.511Z,461.25
2019-04-14T12:21:35.451Z,455.63
2019-04-14T12:22:35.418Z,455.63
2019-04-14T12:23:35.413Z,455.63
2019-04-14T12:24:35.363Z,461.25
2019-04-14T12:25:35.326Z,478.13
2019-04-14T12:26:35.318Z,517.50
2019-04-14T12:27:35.280Z,562.50
2019-04-14T12:28:36.115Z,579.38
2019-04-14T12:29:35.290Z,601.88
2019-04-14T12:30:35.610Z,635.63
2019-04-14T12:31:35.337Z,663.75
2019-04-14T12:32:35.185Z,675.00
2019-04-14T12:33:35.186Z,697.50
2019-04-14T12:34:35.042Z,736.88
2019-04-14T12:35:35.021Z,776.25
2019-04-14T12:36:34.984Z,798.75
2019-04-14T12:37:34.958Z,804.38
2019-04-14T12:38:34.947Z,810.00
2019-04-14T12:39:34.894Z,832.50
2019-04-14T12:40:34.870Z,877.50
2019-04-14T12:41:35.427Z,911.25
2019-04-14T12:42:34.803Z,922.50
2019-04-14T12:43:34.798Z,928.13
2019-04-14T12:44:34.745Z,928.13
2019-04-14T12:45:34.716Z,911.25
2019-04-14T12:46:34.681Z,905.63
2019-04-14T12:47:39.745Z,894.38
2019-04-14T12:48:34.648Z,866.25
2019-04-14T12:49:34.603Z,838.13
2019-04-14T12:50:34.567Z,826.88
2019-04-14T12:51:34.538Z,832.50
2019-04-14T12:52:34.513Z,855.00
2019-04-14T12:53:34.974Z,866.25
2019-04-14T12:54:34.512Z,888.75
2019-04-14T12:55:34.427Z,945.00
2019-04-14T12:56:34.395Z,939.38
2019-04-14T12:57:34.412Z,939.38
2019-04-14T12:58:34.341Z,950.63
2019-04-14T12:59:34.335Z,984.38
2019-04-14T13:00:34.305Z,1001.25
2019-04-14T13:01:34.256Z,1012.50
2019-04-14T13:02:34.221Z,995.63
2019-04-14T13:03:34.193Z,928.13
2019-04-14T13:04:34.187Z,950.63
2019-04-14T13:05:34.135Z,973.13